sensor_id;sensor_type;location;lat;lon;timestamp;P1;durP1;ratioP1;P2;durP2;ratioP2
4686;SDS011;2357;47.316;-1.348;2022-12-11T00:00:09;17.93;;;11.20;;
4686;SDS011;2357;47.316;-1.348;2022-12-11T00:02:36;17.83;;;10.30;;
4686;SDS011;2357;47.316;-1.348;2022-12-11T00:05:02;21.00;;;11.57;;
4686;SDS011;2357;47.316;-1.348;2022-12-11T00:07:27;16.77;;;10.67;;
4686;SDS011;2357;47.316;-1.348;2022-12-11T00:09:53;20.53;;;10.40;;
4686;SDS011;2357;47.316;-1.348;2022-12-11T00:12:19;18.93;;;10.93;;
4686;SDS011;2357;47.316;-1.348;2022-12-11T00:14:44;18.60;;;11.50;;
4686;SDS011;2357;47.316;-1.348;2022-12-11T00:17:10;13.73;;;10.77;;
4686;SDS011;2357;47.316;-1.348;2022-12-11T00:19:35;16.13;;;11.10;;
4686;SDS011;2357;47.316;-1.348;2022-12-11T00:22:01;20.63;;;11.30;;
4686;SDS011;2357;47.316;-1.348;2022-12-11T00:24:27;15.47;;;10.80;;
4686;SDS011;2357;47.316;-1.348;2022-12-11T00:26:52;14.90;;;10.30;;
4686;SDS011;2357;47.316;-1.348;2022-12-11T00:29:18;16.73;;;10.77;;
4686;SDS011;2357;47.316;-1.348;2022-12-11T00:31:43;15.77;;;10.80;;
4686;SDS011;2357;47.316;-1.348;2022-12-11T00:34:09;15.63;;;10.93;;
4686;SDS011;2357;47.316;-1.348;2022-12-11T00:36:36;18.10;;;11.00;;
4686;SDS011;2357;47.316;-1.348;2022-12-11T00:39:02;14.77;;;11.00;;
4686;SDS011;2357;47.316;-1.348;2022-12-11T00:41:28;13.53;;;9.57;;
4686;SDS011;2357;47.316;-1.348;2022-12-11T00:43:54;17.40;;;11.57;;
4686;SDS011;2357;47.316;-1.348;2022-12-11T00:46:20;16.07;;;10.40;;
4686;SDS011;2357;47.316;-1.348;2022-12-11T00:48:45;17.87;;;10.83;;
4686;SDS011;2357;47.316;-1.348;2022-12-11T00:51:14;16.83;;;10.27;;
4686;SDS011;2357;47.316;-1.348;2022-12-11T00:53:40;17.93;;;9.67;;
4686;SDS011;2357;47.316;-1.348;2022-12-11T00:56:15;13.53;;;9.10;;
4686;SDS011;2357;47.316;-1.348;2022-12-11T00:58:44;19.97;;;10.27;;
4686;SDS011;2357;47.316;-1.348;2022-12-11T01:01:11;15.90;;;9.47;;
4686;SDS011;2357;47.316;-1.348;2022-12-11T01:03:39;17.90;;;9.97;;
4686;SDS011;2357;47.316;-1.348;2022-12-11T01:06:05;17.70;;;11.60;;
4686;SDS011;2357;47.316;-1.348;2022-12-11T01:08:31;18.90;;;10.40;;
4686;SDS011;2357;47.316;-1.348;2022-12-11T01:11:07;13.23;;;9.90;;
4686;SDS011;2357;47.316;-1.348;2022-12-11T01:13:35;15.60;;;10.03;;
4686;SDS011;2357;47.316;-1.348;2022-12-11T01:16:05;19.40;;;11.20;;
4686;SDS011;2357;47.316;-1.348;2022-12-11T01:18:36;16.03;;;9.47;;
4686;SDS011;2357;47.316;-1.348;2022-12-11T01:21:11;11.73;;;8.80;;
4686;SDS011;2357;47.316;-1.348;2022-12-11T01:23:37;10.23;;;8.33;;
4686;SDS011;2357;47.316;-1.348;2022-12-11T01:26:10;10.30;;;8.77;;
4686;SDS011;2357;47.316;-1.348;2022-12-11T01:28:39;13.57;;;9.00;;
4686;SDS011;2357;47.316;-1.348;2022-12-11T01:31:12;14.83;;;9.57;;
4686;SDS011;2357;47.316;-1.348;2022-12-11T01:33:40;9.77;;;8.47;;
4686;SDS011;2357;47.316;-1.348;2022-12-11T01:36:10;12.30;;;8.63;;
4686;SDS011;2357;47.316;-1.348;2022-12-11T01:38:38;17.00;;;8.87;;
4686;SDS011;2357;47.316;-1.348;2022-12-11T01:41:04;10.07;;;8.00;;
4686;SDS011;2357;47.316;-1.348;2022-12-11T01:43:30;15.80;;;8.90;;
4686;SDS011;2357;47.316;-1.348;2022-12-11T01:45:56;12.83;;;9.23;;
4686;SDS011;2357;47.316;-1.348;2022-12-11T01:48:26;14.50;;;8.30;;
4686;SDS011;2357;47.316;-1.348;2022-12-11T01:50:59;15.97;;;8.97;;
4686;SDS011;2357;47.316;-1.348;2022-12-11T01:53:30;14.37;;;9.07;;
4686;SDS011;2357;47.316;-1.348;2022-12-11T01:55:59;14.13;;;9.63;;
4686;SDS011;2357;47.316;-1.348;2022-12-11T01:58:26;14.80;;;9.50;;
4686;SDS011;2357;47.316;-1.348;2022-12-11T02:00:55;15.10;;;8.43;;
4686;SDS011;2357;47.316;-1.348;2022-12-11T02:03:22;13.47;;;8.80;;
4686;SDS011;2357;47.316;-1.348;2022-12-11T02:05:48;12.23;;;8.37;;
4686;SDS011;2357;47.316;-1.348;2022-12-11T02:08:14;12.40;;;9.97;;
4686;SDS011;2357;47.316;-1.348;2022-12-11T02:13:36;12.83;;;8.73;;
4686;SDS011;2357;47.316;-1.348;2022-12-11T02:16:10;12.83;;;8.70;;
4686;SDS011;2357;47.316;-1.348;2022-12-11T02:18:53;14.40;;;9.30;;
4686;SDS011;2357;47.316;-1.348;2022-12-11T02:21:25;16.63;;;10.10;;
4686;SDS011;2357;47.316;-1.348;2022-12-11T02:29:29;17.33;;;9.03;;
4686;SDS011;2357;47.316;-1.348;2022-12-11T02:34:45;11.40;;;9.67;;
4686;SDS011;2357;47.316;-1.348;2022-12-11T02:37:36;14.67;;;8.20;;
4686;SDS011;2357;47.316;-1.348;2022-12-11T02:40:05;11.03;;;9.03;;
4686;SDS011;2357;47.316;-1.348;2022-12-11T02:42:34;11.30;;;8.90;;
4686;SDS011;2357;47.316;-1.348;2022-12-11T02:45:03;11.03;;;8.60;;
4686;SDS011;2357;47.316;-1.348;2022-12-11T02:47:30;10.97;;;9.20;;
4686;SDS011;2357;47.316;-1.348;2022-12-11T02:49:57;12.33;;;8.90;;
4686;SDS011;2357;47.316;-1.348;2022-12-11T02:52:26;12.13;;;8.40;;
4686;SDS011;2357;47.316;-1.348;2022-12-11T02:54:55;11.90;;;8.20;;
4686;SDS011;2357;47.316;-1.348;2022-12-11T02:57:30;22.83;;;9.33;;
4686;SDS011;2357;47.316;-1.348;2022-12-11T03:00:03;13.20;;;9.47;;
4686;SDS011;2357;47.316;-1.348;2022-12-11T03:02:30;15.17;;;10.60;;
4686;SDS011;2357;47.316;-1.348;2022-12-11T03:04:56;13.87;;;9.20;;
4686;SDS011;2357;47.316;-1.348;2022-12-11T03:07:26;14.50;;;10.17;;
4686;SDS011;2357;47.316;-1.348;2022-12-11T03:09:56;11.27;;;8.10;;
4686;SDS011;2357;47.316;-1.348;2022-12-11T03:12:29;19.83;;;10.80;;
4686;SDS011;2357;47.316;-1.348;2022-12-11T03:14:57;15.97;;;10.57;;
4686;SDS011;2357;47.316;-1.348;2022-12-11T03:23:01;15.13;;;9.20;;
4686;SDS011;2357;47.316;-1.348;2022-12-11T03:25:53;12.60;;;9.20;;
4686;SDS011;2357;47.316;-1.348;2022-12-11T03:31:24;17.67;;;9.30;;
4686;SDS011;2357;47.316;-1.348;2022-12-11T03:33:59;12.03;;;9.17;;
4686;SDS011;2357;47.316;-1.348;2022-12-11T03:36:31;10.77;;;9.00;;
4686;SDS011;2357;47.316;-1.348;2022-12-11T03:39:11;16.30;;;11.13;;
4686;SDS011;2357;47.316;-1.348;2022-12-11T03:41:40;13.93;;;9.50;;
4686;SDS011;2357;47.316;-1.348;2022-12-11T03:44:08;12.47;;;8.17;;
4686;SDS011;2357;47.316;-1.348;2022-12-11T03:46:36;17.73;;;10.77;;
4686;SDS011;2357;47.316;-1.348;2022-12-11T03:49:08;16.23;;;11.17;;
4686;SDS011;2357;47.316;-1.348;2022-12-11T03:51:39;14.63;;;10.10;;
4686;SDS011;2357;47.316;-1.348;2022-12-11T03:54:07;14.00;;;10.70;;
4686;SDS011;2357;47.316;-1.348;2022-12-11T03:56:34;17.00;;;11.00;;
4686;SDS011;2357;47.316;-1.348;2022-12-11T03:59:02;17.73;;;10.70;;
4686;SDS011;2357;47.316;-1.348;2022-12-11T04:01:27;15.07;;;10.10;;
4686;SDS011;2357;47.316;-1.348;2022-12-11T04:03:53;15.93;;;10.70;;
4686;SDS011;2357;47.316;-1.348;2022-12-11T04:06:19;16.50;;;11.07;;
4686;SDS011;2357;47.316;-1.348;2022-12-11T04:08:45;15.87;;;10.53;;
4686;SDS011;2357;47.316;-1.348;2022-12-11T04:11:10;19.03;;;11.40;;
4686;SDS011;2357;47.316;-1.348;2022-12-11T04:13:55;17.90;;;12.40;;
4686;SDS011;2357;47.316;-1.348;2022-12-11T04:16:39;17.20;;;11.20;;
4686;SDS011;2357;47.316;-1.348;2022-12-11T04:19:05;15.87;;;10.00;;
4686;SDS011;2357;47.316;-1.348;2022-12-11T04:21:49;15.60;;;11.07;;
4686;SDS011;2357;47.316;-1.348;2022-12-11T04:24:33;14.33;;;10.07;;
4686;SDS011;2357;47.316;-1.348;2022-12-11T04:26:59;16.73;;;10.90;;
4686;SDS011;2357;47.316;-1.348;2022-12-11T04:29:24;13.73;;;9.10;;
4686;SDS011;2357;47.316;-1.348;2022-12-11T04:31:50;15.00;;;9.87;;
4686;SDS011;2357;47.316;-1.348;2022-12-11T04:34:16;18.43;;;10.57;;
4686;SDS011;2357;47.316;-1.348;2022-12-11T04:36:42;12.90;;;9.53;;
4686;SDS011;2357;47.316;-1.348;2022-12-11T04:39:07;16.30;;;9.30;;
4686;SDS011;2357;47.316;-1.348;2022-12-11T04:41:33;20.63;;;10.87;;
4686;SDS011;2357;47.316;-1.348;2022-12-11T04:43:59;16.37;;;11.47;;
4686;SDS011;2357;47.316;-1.348;2022-12-11T04:46:25;12.50;;;10.10;;
4686;SDS011;2357;47.316;-1.348;2022-12-11T04:48:51;14.23;;;10.53;;
4686;SDS011;2357;47.316;-1.348;2022-12-11T04:51:17;16.77;;;9.77;;
4686;SDS011;2357;47.316;-1.348;2022-12-11T04:53:44;12.30;;;9.43;;
4686;SDS011;2357;47.316;-1.348;2022-12-11T04:56:11;15.53;;;9.60;;
4686;SDS011;2357;47.316;-1.348;2022-12-11T04:58:39;14.43;;;8.97;;
4686;SDS011;2357;47.316;-1.348;2022-12-11T05:01:12;12.73;;;9.43;;
4686;SDS011;2357;47.316;-1.348;2022-12-11T05:03:40;13.53;;;9.60;;
4686;SDS011;2357;47.316;-1.348;2022-12-11T05:06:06;16.67;;;9.67;;
4686;SDS011;2357;47.316;-1.348;2022-12-11T05:08:34;16.60;;;9.30;;
4686;SDS011;2357;47.316;-1.348;2022-12-11T05:11:02;15.10;;;9.03;;
4686;SDS011;2357;47.316;-1.348;2022-12-11T05:13:30;13.80;;;8.83;;
4686;SDS011;2357;47.316;-1.348;2022-12-11T05:15:56;17.10;;;9.20;;
4686;SDS011;2357;47.316;-1.348;2022-12-11T05:18:22;13.00;;;8.53;;
4686;SDS011;2357;47.316;-1.348;2022-12-11T05:20:55;16.83;;;9.20;;
4686;SDS011;2357;47.316;-1.348;2022-12-11T05:23:22;12.13;;;8.67;;
4686;SDS011;2357;47.316;-1.348;2022-12-11T05:25:55;13.47;;;8.90;;
4686;SDS011;2357;47.316;-1.348;2022-12-11T05:28:23;12.37;;;8.97;;
4686;SDS011;2357;47.316;-1.348;2022-12-11T05:31:33;13.80;;;8.40;;
4686;SDS011;2357;47.316;-1.348;2022-12-11T05:33:41;13.43;;;9.30;;
4686;SDS011;2357;47.316;-1.348;2022-12-11T05:36:08;11.40;;;9.10;;
4686;SDS011;2357;47.316;-1.348;2022-12-11T05:38:39;11.10;;;8.27;;
4686;SDS011;2357;47.316;-1.348;2022-12-11T05:41:05;16.37;;;10.20;;
4686;SDS011;2357;47.316;-1.348;2022-12-11T05:43:32;14.23;;;9.60;;
4686;SDS011;2357;47.316;-1.348;2022-12-11T05:46:12;12.20;;;9.50;;
4686;SDS011;2357;47.316;-1.348;2022-12-11T05:48:40;17.43;;;10.30;;
4686;SDS011;2357;47.316;-1.348;2022-12-11T05:51:06;14.20;;;9.73;;
4686;SDS011;2357;47.316;-1.348;2022-12-11T05:53:33;16.17;;;9.50;;
4686;SDS011;2357;47.316;-1.348;2022-12-11T05:56:01;14.50;;;8.80;;
4686;SDS011;2357;47.316;-1.348;2022-12-11T05:58:28;13.33;;;9.53;;
4686;SDS011;2357;47.316;-1.348;2022-12-11T06:00:54;14.80;;;9.67;;
4686;SDS011;2357;47.316;-1.348;2022-12-11T06:03:19;12.37;;;9.30;;
4686;SDS011;2357;47.316;-1.348;2022-12-11T06:05:45;12.00;;;8.10;;
4686;SDS011;2357;47.316;-1.348;2022-12-11T06:08:10;15.83;;;10.10;;
4686;SDS011;2357;47.316;-1.348;2022-12-11T06:10:36;12.40;;;9.47;;
4686;SDS011;2357;47.316;-1.348;2022-12-11T06:13:02;11.97;;;9.20;;
4686;SDS011;2357;47.316;-1.348;2022-12-11T06:15:27;13.70;;;8.80;;
4686;SDS011;2357;47.316;-1.348;2022-12-11T06:17:53;16.90;;;9.93;;
4686;SDS011;2357;47.316;-1.348;2022-12-11T06:20:19;11.70;;;8.50;;
4686;SDS011;2357;47.316;-1.348;2022-12-11T06:22:44;13.97;;;10.17;;
4686;SDS011;2357;47.316;-1.348;2022-12-11T06:25:10;12.57;;;8.93;;
4686;SDS011;2357;47.316;-1.348;2022-12-11T06:27:36;13.50;;;9.40;;
4686;SDS011;2357;47.316;-1.348;2022-12-11T06:30:01;15.40;;;9.50;;
4686;SDS011;2357;47.316;-1.348;2022-12-11T06:32:27;14.47;;;9.37;;
4686;SDS011;2357;47.316;-1.348;2022-12-11T06:34:53;13.60;;;8.77;;
4686;SDS011;2357;47.316;-1.348;2022-12-11T06:37:18;11.80;;;8.40;;
4686;SDS011;2357;47.316;-1.348;2022-12-11T06:39:44;14.00;;;9.63;;
4686;SDS011;2357;47.316;-1.348;2022-12-11T06:42:10;13.80;;;8.53;;
4686;SDS011;2357;47.316;-1.348;2022-12-11T06:44:35;10.60;;;8.80;;
4686;SDS011;2357;47.316;-1.348;2022-12-11T06:47:02;12.60;;;8.40;;
4686;SDS011;2357;47.316;-1.348;2022-12-11T06:49:27;15.00;;;8.67;;
4686;SDS011;2357;47.316;-1.348;2022-12-11T06:51:54;12.13;;;8.57;;
4686;SDS011;2357;47.316;-1.348;2022-12-11T06:54:20;11.13;;;8.33;;
4686;SDS011;2357;47.316;-1.348;2022-12-11T06:56:50;12.17;;;9.10;;
4686;SDS011;2357;47.316;-1.348;2022-12-11T06:59:15;15.40;;;8.67;;
4686;SDS011;2357;47.316;-1.348;2022-12-11T07:01:42;10.30;;;8.30;;
4686;SDS011;2357;47.316;-1.348;2022-12-11T07:04:07;13.27;;;8.07;;
4686;SDS011;2357;47.316;-1.348;2022-12-11T07:06:33;17.73;;;11.07;;
4686;SDS011;2357;47.316;-1.348;2022-12-11T07:08:59;17.57;;;11.20;;
4686;SDS011;2357;47.316;-1.348;2022-12-11T07:11:27;25.00;;;11.97;;
4686;SDS011;2357;47.316;-1.348;2022-12-11T07:13:52;20.60;;;12.50;;
4686;SDS011;2357;47.316;-1.348;2022-12-11T07:16:18;16.80;;;11.40;;
4686;SDS011;2357;47.316;-1.348;2022-12-11T07:18:48;16.40;;;10.67;;
4686;SDS011;2357;47.316;-1.348;2022-12-11T07:21:14;21.50;;;11.97;;
4686;SDS011;2357;47.316;-1.348;2022-12-11T07:23:41;15.60;;;11.30;;
4686;SDS011;2357;47.316;-1.348;2022-12-11T07:26:08;19.97;;;12.70;;
4686;SDS011;2357;47.316;-1.348;2022-12-11T07:28:36;19.03;;;12.50;;
4686;SDS011;2357;47.316;-1.348;2022-12-11T07:31:08;22.50;;;12.17;;
4686;SDS011;2357;47.316;-1.348;2022-12-11T07:33:38;20.07;;;12.80;;
4686;SDS011;2357;47.316;-1.348;2022-12-11T07:36:05;18.77;;;12.23;;
4686;SDS011;2357;47.316;-1.348;2022-12-11T07:38:32;23.10;;;12.60;;
4686;SDS011;2357;47.316;-1.348;2022-12-11T07:41:04;19.63;;;13.23;;
4686;SDS011;2357;47.316;-1.348;2022-12-11T07:43:32;14.57;;;10.87;;
4686;SDS011;2357;47.316;-1.348;2022-12-11T07:46:05;19.23;;;10.93;;
4686;SDS011;2357;47.316;-1.348;2022-12-11T07:48:35;16.87;;;11.53;;
4686;SDS011;2357;47.316;-1.348;2022-12-11T07:51:09;17.30;;;10.87;;
4686;SDS011;2357;47.316;-1.348;2022-12-11T07:53:36;18.03;;;12.33;;
4686;SDS011;2357;47.316;-1.348;2022-12-11T07:56:02;15.60;;;11.00;;
4686;SDS011;2357;47.316;-1.348;2022-12-11T07:58:28;16.53;;;12.10;;
4686;SDS011;2357;47.316;-1.348;2022-12-11T08:00:54;17.20;;;10.63;;
4686;SDS011;2357;47.316;-1.348;2022-12-11T08:03:20;12.33;;;10.10;;
4686;SDS011;2357;47.316;-1.348;2022-12-11T08:05:47;15.50;;;10.40;;
4686;SDS011;2357;47.316;-1.348;2022-12-11T08:08:13;15.20;;;9.93;;
4686;SDS011;2357;47.316;-1.348;2022-12-11T08:10:39;16.00;;;10.07;;
4686;SDS011;2357;47.316;-1.348;2022-12-11T08:13:05;16.83;;;10.40;;
4686;SDS011;2357;47.316;-1.348;2022-12-11T08:15:31;11.63;;;10.13;;
4686;SDS011;2357;47.316;-1.348;2022-12-11T08:17:57;16.50;;;11.17;;
4686;SDS011;2357;47.316;-1.348;2022-12-11T08:20:23;19.87;;;12.73;;
4686;SDS011;2357;47.316;-1.348;2022-12-11T08:22:48;23.30;;;14.20;;
4686;SDS011;2357;47.316;-1.348;2022-12-11T08:25:14;18.70;;;13.33;;
4686;SDS011;2357;47.316;-1.348;2022-12-11T08:27:40;23.90;;;15.40;;
4686;SDS011;2357;47.316;-1.348;2022-12-11T08:30:06;24.73;;;14.60;;
4686;SDS011;2357;47.316;-1.348;2022-12-11T08:32:32;29.23;;;14.97;;
4686;SDS011;2357;47.316;-1.348;2022-12-11T08:34:58;28.07;;;16.77;;
4686;SDS011;2357;47.316;-1.348;2022-12-11T08:37:24;26.30;;;15.47;;
4686;SDS011;2357;47.316;-1.348;2022-12-11T08:39:50;29.50;;;16.20;;
4686;SDS011;2357;47.316;-1.348;2022-12-11T08:42:15;24.90;;;14.43;;
4686;SDS011;2357;47.316;-1.348;2022-12-11T08:44:41;27.17;;;16.87;;
4686;SDS011;2357;47.316;-1.348;2022-12-11T08:47:07;24.53;;;15.07;;
4686;SDS011;2357;47.316;-1.348;2022-12-11T08:49:34;25.93;;;15.80;;
4686;SDS011;2357;47.316;-1.348;2022-12-11T08:52:00;23.97;;;14.17;;
4686;SDS011;2357;47.316;-1.348;2022-12-11T08:54:27;25.90;;;15.70;;
4686;SDS011;2357;47.316;-1.348;2022-12-11T08:56:52;24.57;;;15.07;;
4686;SDS011;2357;47.316;-1.348;2022-12-11T08:59:18;25.23;;;15.83;;
4686;SDS011;2357;47.316;-1.348;2022-12-11T09:01:44;22.90;;;14.53;;
4686;SDS011;2357;47.316;-1.348;2022-12-11T09:04:09;22.30;;;15.00;;
4686;SDS011;2357;47.316;-1.348;2022-12-11T09:06:35;24.33;;;15.70;;
4686;SDS011;2357;47.316;-1.348;2022-12-11T09:09:00;24.40;;;15.77;;
4686;SDS011;2357;47.316;-1.348;2022-12-11T09:11:28;24.60;;;16.93;;
4686;SDS011;2357;47.316;-1.348;2022-12-11T09:13:56;26.80;;;13.90;;
4686;SDS011;2357;47.316;-1.348;2022-12-11T09:16:22;27.77;;;14.57;;
4686;SDS011;2357;47.316;-1.348;2022-12-11T09:18:51;19.37;;;13.97;;
4686;SDS011;2357;47.316;-1.348;2022-12-11T09:21:19;18.27;;;12.30;;
4686;SDS011;2357;47.316;-1.348;2022-12-11T09:23:46;20.50;;;12.53;;
4686;SDS011;2357;47.316;-1.348;2022-12-11T09:26:13;20.73;;;13.63;;
4686;SDS011;2357;47.316;-1.348;2022-12-11T09:28:40;21.57;;;13.93;;
4686;SDS011;2357;47.316;-1.348;2022-12-11T09:31:07;20.53;;;12.33;;
4686;SDS011;2357;47.316;-1.348;2022-12-11T09:33:37;19.00;;;13.47;;
4686;SDS011;2357;47.316;-1.348;2022-12-11T09:36:03;20.17;;;13.63;;
4686;SDS011;2357;47.316;-1.348;2022-12-11T09:38:30;24.47;;;14.53;;
4686;SDS011;2357;47.316;-1.348;2022-12-11T09:40:56;21.27;;;13.50;;
4686;SDS011;2357;47.316;-1.348;2022-12-11T09:43:37;21.73;;;14.10;;
4686;SDS011;2357;47.316;-1.348;2022-12-11T09:46:13;20.67;;;12.30;;
4686;SDS011;2357;47.316;-1.348;2022-12-11T09:48:40;23.50;;;13.37;;
4686;SDS011;2357;47.316;-1.348;2022-12-11T09:51:23;21.40;;;14.10;;
4686;SDS011;2357;47.316;-1.348;2022-12-11T09:53:51;33.73;;;14.40;;
4686;SDS011;2357;47.316;-1.348;2022-12-11T09:56:32;26.00;;;14.93;;
4686;SDS011;2357;47.316;-1.348;2022-12-11T10:01:58;21.93;;;13.13;;
4686;SDS011;2357;47.316;-1.348;2022-12-11T10:05:10;17.67;;;12.63;;
4686;SDS011;2357;47.316;-1.348;2022-12-11T10:07:43;17.90;;;13.00;;
4686;SDS011;2357;47.316;-1.348;2022-12-11T10:10:42;22.03;;;12.97;;
4686;SDS011;2357;47.316;-1.348;2022-12-11T10:18:36;16.83;;;12.00;;
4686;SDS011;2357;47.316;-1.348;2022-12-11T10:21:02;16.90;;;11.73;;
4686;SDS011;2357;47.316;-1.348;2022-12-11T10:23:37;16.97;;;11.40;;
4686;SDS011;2357;47.316;-1.348;2022-12-11T10:26:18;20.10;;;12.97;;
4686;SDS011;2357;47.316;-1.348;2022-12-11T10:28:45;19.83;;;11.70;;
4686;SDS011;2357;47.316;-1.348;2022-12-11T10:31:18;14.30;;;10.67;;
4686;SDS011;2357;47.316;-1.348;2022-12-11T10:34:02;14.40;;;9.43;;
4686;SDS011;2357;47.316;-1.348;2022-12-11T10:36:34;12.53;;;9.43;;
4686;SDS011;2357;47.316;-1.348;2022-12-11T10:39:15;10.70;;;9.10;;
4686;SDS011;2357;47.316;-1.348;2022-12-11T10:41:46;12.33;;;9.20;;
4686;SDS011;2357;47.316;-1.348;2022-12-11T10:44:27;13.27;;;9.67;;
4686;SDS011;2357;47.316;-1.348;2022-12-11T10:47:10;11.27;;;8.97;;
4686;SDS011;2357;47.316;-1.348;2022-12-11T10:49:41;13.30;;;9.50;;
4686;SDS011;2357;47.316;-1.348;2022-12-11T10:52:19;11.07;;;8.00;;
4686;SDS011;2357;47.316;-1.348;2022-12-11T10:55:06;13.47;;;8.47;;
4686;SDS011;2357;47.316;-1.348;2022-12-11T10:57:41;12.47;;;9.13;;
4686;SDS011;2357;47.316;-1.348;2022-12-11T11:00:24;11.70;;;7.53;;
4686;SDS011;2357;47.316;-1.348;2022-12-11T11:02:56;12.27;;;7.73;;
4686;SDS011;2357;47.316;-1.348;2022-12-11T11:05:31;12.83;;;8.37;;
4686;SDS011;2357;47.316;-1.348;2022-12-11T11:10:56;9.53;;;7.70;;
4686;SDS011;2357;47.316;-1.348;2022-12-11T11:13:24;10.20;;;7.73;;
4686;SDS011;2357;47.316;-1.348;2022-12-11T11:16:24;10.67;;;8.30;;
4686;SDS011;2357;47.316;-1.348;2022-12-11T11:18:51;10.90;;;8.23;;
4686;SDS011;2357;47.316;-1.348;2022-12-11T11:21:21;9.73;;;8.27;;
4686;SDS011;2357;47.316;-1.348;2022-12-11T11:23:48;11.57;;;8.33;;
4686;SDS011;2357;47.316;-1.348;2022-12-11T11:26:15;10.73;;;8.57;;
4686;SDS011;2357;47.316;-1.348;2022-12-11T11:28:45;13.17;;;8.87;;
4686;SDS011;2357;47.316;-1.348;2022-12-11T11:31:14;14.13;;;8.50;;
4686;SDS011;2357;47.316;-1.348;2022-12-11T11:33:47;13.10;;;8.63;;
4686;SDS011;2357;47.316;-1.348;2022-12-11T11:36:20;11.40;;;9.40;;
4686;SDS011;2357;47.316;-1.348;2022-12-11T11:39:01;10.60;;;7.60;;
4686;SDS011;2357;47.316;-1.348;2022-12-11T11:44:42;9.47;;;8.37;;
4686;SDS011;2357;47.316;-1.348;2022-12-11T11:47:23;10.40;;;8.50;;
4686;SDS011;2357;47.316;-1.348;2022-12-11T11:50:02;10.20;;;7.70;;
4686;SDS011;2357;47.316;-1.348;2022-12-11T11:52:41;15.40;;;8.07;;
4686;SDS011;2357;47.316;-1.348;2022-12-11T11:55:28;10.93;;;8.73;;
4686;SDS011;2357;47.316;-1.348;2022-12-11T12:00:43;17.43;;;8.20;;
4686;SDS011;2357;47.316;-1.348;2022-12-11T12:03:13;12.93;;;8.13;;
4686;SDS011;2357;47.316;-1.348;2022-12-11T12:05:54;11.97;;;8.30;;
4686;SDS011;2357;47.316;-1.348;2022-12-11T12:11:39;10.60;;;7.70;;
4686;SDS011;2357;47.316;-1.348;2022-12-11T12:14:23;10.27;;;7.97;;
4686;SDS011;2357;47.316;-1.348;2022-12-11T12:17:05;14.77;;;8.20;;
4686;SDS011;2357;47.316;-1.348;2022-12-11T12:19:49;11.90;;;6.70;;
4686;SDS011;2357;47.316;-1.348;2022-12-11T12:27:49;11.43;;;8.33;;
4686;SDS011;2357;47.316;-1.348;2022-12-11T12:30:23;9.97;;;8.10;;
4686;SDS011;2357;47.316;-1.348;2022-12-11T12:38:07;9.90;;;7.13;;
4686;SDS011;2357;47.316;-1.348;2022-12-11T12:46:20;11.00;;;8.00;;
4686;SDS011;2357;47.316;-1.348;2022-12-11T12:48:57;14.00;;;8.00;;
4686;SDS011;2357;47.316;-1.348;2022-12-11T12:51:24;10.50;;;7.30;;
4686;SDS011;2357;47.316;-1.348;2022-12-11T12:53:54;9.20;;;7.70;;
4686;SDS011;2357;47.316;-1.348;2022-12-11T12:56:23;10.23;;;7.07;;
4686;SDS011;2357;47.316;-1.348;2022-12-11T12:58:51;8.70;;;6.67;;
4686;SDS011;2357;47.316;-1.348;2022-12-11T13:01:21;10.60;;;7.70;;
4686;SDS011;2357;47.316;-1.348;2022-12-11T13:06:28;9.90;;;6.57;;
4686;SDS011;2357;47.316;-1.348;2022-12-11T13:09:08;9.43;;;6.90;;
4686;SDS011;2357;47.316;-1.348;2022-12-11T13:11:41;7.20;;;5.93;;
4686;SDS011;2357;47.316;-1.348;2022-12-11T13:14:20;12.20;;;7.17;;
4686;SDS011;2357;47.316;-1.348;2022-12-11T13:16:52;8.27;;;7.47;;
4686;SDS011;2357;47.316;-1.348;2022-12-11T13:19:45;10.67;;;7.30;;
4686;SDS011;2357;47.316;-1.348;2022-12-11T13:22:22;9.57;;;6.40;;
4686;SDS011;2357;47.316;-1.348;2022-12-11T13:27:50;8.70;;;6.53;;
4686;SDS011;2357;47.316;-1.348;2022-12-11T13:35:37;9.40;;;7.50;;
4686;SDS011;2357;47.316;-1.348;2022-12-11T13:38:07;10.33;;;7.00;;
4686;SDS011;2357;47.316;-1.348;2022-12-11T13:40:40;10.80;;;7.57;;
4686;SDS011;2357;47.316;-1.348;2022-12-11T13:43:18;9.00;;;7.17;;
4686;SDS011;2357;47.316;-1.348;2022-12-11T13:45:48;9.27;;;6.87;;
4686;SDS011;2357;47.316;-1.348;2022-12-11T13:51:02;7.60;;;5.90;;
4686;SDS011;2357;47.316;-1.348;2022-12-11T13:53:29;9.50;;;6.60;;
4686;SDS011;2357;47.316;-1.348;2022-12-11T13:56:00;12.30;;;5.70;;
4686;SDS011;2357;47.316;-1.348;2022-12-11T13:58:33;7.53;;;6.20;;
4686;SDS011;2357;47.316;-1.348;2022-12-11T14:03:29;7.47;;;6.60;;
4686;SDS011;2357;47.316;-1.348;2022-12-11T14:05:56;8.80;;;7.13;;
4686;SDS011;2357;47.316;-1.348;2022-12-11T14:08:25;9.80;;;6.97;;
4686;SDS011;2357;47.316;-1.348;2022-12-11T14:10:55;9.50;;;6.67;;
4686;SDS011;2357;47.316;-1.348;2022-12-11T14:13:22;7.97;;;6.87;;
4686;SDS011;2357;47.316;-1.348;2022-12-11T14:15:56;10.50;;;7.50;;
4686;SDS011;2357;47.316;-1.348;2022-12-11T14:18:22;8.90;;;6.00;;
4686;SDS011;2357;47.316;-1.348;2022-12-11T14:20:54;10.87;;;6.73;;
4686;SDS011;2357;47.316;-1.348;2022-12-11T14:23:28;9.10;;;6.13;;
4686;SDS011;2357;47.316;-1.348;2022-12-11T14:25:59;12.00;;;6.60;;
4686;SDS011;2357;47.316;-1.348;2022-12-11T14:28:40;8.77;;;7.20;;
4686;SDS011;2357;47.316;-1.348;2022-12-11T14:31:06;9.30;;;7.30;;
4686;SDS011;2357;47.316;-1.348;2022-12-11T14:33:34;9.13;;;7.40;;
4686;SDS011;2357;47.316;-1.348;2022-12-11T14:36:04;11.40;;;8.00;;
4686;SDS011;2357;47.316;-1.348;2022-12-11T14:38:37;12.60;;;7.43;;
4686;SDS011;2357;47.316;-1.348;2022-12-11T14:41:12;7.17;;;6.40;;
4686;SDS011;2357;47.316;-1.348;2022-12-11T14:43:42;9.40;;;7.30;;
4686;SDS011;2357;47.316;-1.348;2022-12-11T14:46:15;10.13;;;7.60;;
4686;SDS011;2357;47.316;-1.348;2022-12-11T14:48:52;12.33;;;7.70;;
4686;SDS011;2357;47.316;-1.348;2022-12-11T14:51:23;11.33;;;6.80;;
4686;SDS011;2357;47.316;-1.348;2022-12-11T14:53:51;10.20;;;6.77;;
4686;SDS011;2357;47.316;-1.348;2022-12-11T14:56:20;8.70;;;6.50;;
4686;SDS011;2357;47.316;-1.348;2022-12-11T14:58:59;8.40;;;7.00;;
4686;SDS011;2357;47.316;-1.348;2022-12-11T15:01:30;12.83;;;7.67;;
4686;SDS011;2357;47.316;-1.348;2022-12-11T15:06:29;9.13;;;7.20;;
4686;SDS011;2357;47.316;-1.348;2022-12-11T15:09:07;10.50;;;7.80;;
4686;SDS011;2357;47.316;-1.348;2022-12-11T15:11:49;8.47;;;7.63;;
4686;SDS011;2357;47.316;-1.348;2022-12-11T15:14:16;9.73;;;7.40;;
4686;SDS011;2357;47.316;-1.348;2022-12-11T15:16:43;10.23;;;7.90;;
4686;SDS011;2357;47.316;-1.348;2022-12-11T15:19:22;11.50;;;7.53;;
4686;SDS011;2357;47.316;-1.348;2022-12-11T15:21:52;10.40;;;7.60;;
4686;SDS011;2357;47.316;-1.348;2022-12-11T15:24:52;11.13;;;7.23;;
4686;SDS011;2357;47.316;-1.348;2022-12-11T15:27:37;10.70;;;7.80;;
4686;SDS011;2357;47.316;-1.348;2022-12-11T15:33:04;8.70;;;7.67;;
4686;SDS011;2357;47.316;-1.348;2022-12-11T15:35:51;13.53;;;8.30;;
4686;SDS011;2357;47.316;-1.348;2022-12-11T15:38:37;12.17;;;7.93;;
4686;SDS011;2357;47.316;-1.348;2022-12-11T15:41:09;9.90;;;7.30;;
4686;SDS011;2357;47.316;-1.348;2022-12-11T15:43:38;19.13;;;11.87;;
4686;SDS011;2357;47.316;-1.348;2022-12-11T15:46:04;15.07;;;9.97;;
4686;SDS011;2357;47.316;-1.348;2022-12-11T15:48:30;15.07;;;8.93;;
4686;SDS011;2357;47.316;-1.348;2022-12-11T15:50:56;11.40;;;7.40;;
4686;SDS011;2357;47.316;-1.348;2022-12-11T15:53:22;13.27;;;7.57;;
4686;SDS011;2357;47.316;-1.348;2022-12-11T15:55:48;13.40;;;8.00;;
4686;SDS011;2357;47.316;-1.348;2022-12-11T15:58:15;8.43;;;6.70;;
4686;SDS011;2357;47.316;-1.348;2022-12-11T16:00:47;11.13;;;8.03;;
4686;SDS011;2357;47.316;-1.348;2022-12-11T16:03:13;15.53;;;7.40;;
4686;SDS011;2357;47.316;-1.348;2022-12-11T16:05:40;12.40;;;7.70;;
4686;SDS011;2357;47.316;-1.348;2022-12-11T16:08:08;10.43;;;8.40;;
4686;SDS011;2357;47.316;-1.348;2022-12-11T16:10:39;11.70;;;8.60;;
4686;SDS011;2357;47.316;-1.348;2022-12-11T16:13:07;10.20;;;7.72;;
4686;SDS011;2357;47.316;-1.348;2022-12-11T16:15:33;13.10;;;7.47;;
4686;SDS011;2357;47.316;-1.348;2022-12-11T16:17:59;10.87;;;7.67;;